createdAt,value
2023-01-13T00:00:32.779Z,68.32
2023-01-13T00:02:35.717Z,67.60
2023-01-13T00:04:38.605Z,68.28
2023-01-13T00:06:41.385Z,68.29
2023-01-13T00:08:44.279Z,67.92
2023-01-13T00:10:48.577Z,67.95
2023-01-13T00:12:53.444Z,68.52
2023-01-13T00:14:56.227Z,67.76
2023-01-13T00:16:58.965Z,68.63
2023-01-13T00:19:01.737Z,68.00
2023-01-13T00:21:07.257Z,68.88
2023-01-13T00:23:10.122Z,68.76
2023-01-13T00:25:13.303Z,68.15
2023-01-13T00:27:16.048Z,69.23
2023-01-13T00:29:20.869Z,69.55
2023-01-13T00:31:23.739Z,68.84
2023-01-13T00:33:26.667Z,69.08
2023-01-13T00:35:29.688Z,70.00
2023-01-13T00:37:32.420Z,69.77
2023-01-13T00:39:35.290Z,69.40
2023-01-13T00:41:51.995Z,69.62
2023-01-13T00:43:54.758Z,69.67
2023-01-13T00:45:59.642Z,69.15
2023-01-13T00:48:02.211Z,69.83
2023-01-13T00:50:05.441Z,69.23
2023-01-13T00:52:08.226Z,69.80
2023-01-13T00:54:10.976Z,68.99
2023-01-13T00:56:18.109Z,69.66
2023-01-13T00:58:20.998Z,69.33
2023-01-13T01:00:23.933Z,69.69
2023-01-13T01:02:28.201Z,69.46
2023-01-13T01:04:31.847Z,69.37
2023-01-13T01:06:34.798Z,69.46
2023-01-13T01:08:37.833Z,69.52
2023-01-13T01:10:40.644Z,69.75
2023-01-13T01:12:43.472Z,69.90
2023-01-13T01:14:46.419Z,70.27
2023-01-13T01:16:49.171Z,71.25
2023-01-13T01:18:54.436Z,71.37
2023-01-13T01:21:00.618Z,71.07
2023-01-13T01:23:03.434Z,71.58
2023-01-13T01:25:07.046Z,71.59
2023-01-13T01:27:09.783Z,71.76
2023-01-13T01:29:15.058Z,70.78
2023-01-13T01:31:19.822Z,71.22
2023-01-13T01:33:23.006Z,71.43
2023-01-13T01:35:27.167Z,70.59
2023-01-13T01:37:29.904Z,71.34
2023-01-13T01:39:32.755Z,71.13
2023-01-13T01:41:37.062Z,71.50
2023-01-13T01:44:02.845Z,71.22
2023-01-13T01:46:06.588Z,71.63
2023-01-13T01:48:10.303Z,71.37
2023-01-13T01:50:13.217Z,71.35
2023-01-13T01:52:20.133Z,70.90
2023-01-13T01:54:27.371Z,71.39
2023-01-13T01:56:31.175Z,71.22
2023-01-13T01:58:38.565Z,71.27
2023-01-13T02:00:41.424Z,71.42
2023-01-13T02:02:46.996Z,71.75
2023-01-13T02:04:53.933Z,71.64
2023-01-13T02:06:57.901Z,72.44
2023-01-13T02:09:02.299Z,72.49
2023-01-13T02:11:05.235Z,71.60
2023-01-13T02:13:10.692Z,72.13
2023-01-13T02:15:17.078Z,71.58
2023-01-13T02:17:31.361Z,71.43
2023-01-13T02:20:08.006Z,72.11
2023-01-13T02:22:33.557Z,71.54
2023-01-13T02:25:13.107Z,71.36
2023-01-13T02:27:54.355Z,70.94
2023-01-13T02:30:27.697Z,71.54
2023-01-13T02:32:41.097Z,71.92
2023-01-13T02:34:54.376Z,72.32
2023-01-13T02:37:02.945Z,71.65
2023-01-13T02:39:13.001Z,71.87
2023-01-13T02:41:39.352Z,71.67
2023-01-13T02:44:00.925Z,71.87
2023-01-13T02:46:14.338Z,71.61
2023-01-13T02:48:20.123Z,72.19
2023-01-13T02:50:28.621Z,72.71
2023-01-13T02:52:36.988Z,72.32
2023-01-13T02:54:43.862Z,73.08
2023-01-13T02:56:49.600Z,72.22
2023-01-13T02:58:54.770Z,72.66
2023-01-13T03:00:57.768Z,72.42
2023-01-13T03:03:03.151Z,72.68
2023-01-13T03:05:06.887Z,72.89
2023-01-13T03:07:14.378Z,72.83
2023-01-13T03:09:23.436Z,72.36
2023-01-13T03:11:34.503Z,72.61
2023-01-13T03:14:01.068Z,72.00
2023-01-13T03:16:16.006Z,72.10
2023-01-13T03:18:33.003Z,72.93
2023-01-13T03:20:41.154Z,72.18
2023-01-13T03:22:49.504Z,72.71
2023-01-13T03:24:57.354Z,72.33
2023-01-13T03:27:05.259Z,71.85
2023-01-13T03:29:12.828Z,72.24
2023-01-13T03:31:20.763Z,71.88
2023-01-13T03:33:30.332Z,71.88
2023-01-13T03:35:38.576Z,71.78
2023-01-13T03:37:46.955Z,71.96
2023-01-13T03:39:54.986Z,71.62
2023-01-13T03:42:01.840Z,71.36
2023-01-13T03:44:24.897Z,71.28
2023-01-13T03:46:34.939Z,72.01
2023-01-13T03:48:44.916Z,71.67
2023-01-13T03:50:51.496Z,72.12
2023-01-13T03:52:59.515Z,71.77
2023-01-13T03:55:05.955Z,71.90
2023-01-13T03:57:13.280Z,72.04
2023-01-13T03:59:21.653Z,72.53
2023-01-13T04:01:31.729Z,72.02
2023-01-13T04:03:40.967Z,71.71
2023-01-13T04:05:52.601Z,72.08
2023-01-13T04:08:03.293Z,72.83
2023-01-13T04:10:09.200Z,72.32
2023-01-13T04:12:16.638Z,72.66
2023-01-13T04:14:21.547Z,71.97
2023-01-13T04:16:24.741Z,71.82
2023-01-13T04:18:30.465Z,71.81
2023-01-13T04:20:33.235Z,71.85
2023-01-13T04:22:37.490Z,71.77
2023-01-13T04:24:40.278Z,71.81
2023-01-13T04:26:43.010Z,72.48
2023-01-13T04:28:45.775Z,72.99
2023-01-13T04:30:48.962Z,72.63
2023-01-13T04:32:51.777Z,72.25
2023-01-13T04:34:54.566Z,71.29
2023-01-13T04:36:57.515Z,71.11
2023-01-13T04:39:01.649Z,70.82
2023-01-13T04:41:04.512Z,72.15
2023-01-13T04:43:07.523Z,72.27
2023-01-13T04:45:11.254Z,72.15
2023-01-13T04:47:14.003Z,71.57
2023-01-13T04:49:16.878Z,72.06
2023-01-13T04:51:21.345Z,72.17
2023-01-13T04:53:24.141Z,71.33
2023-01-13T04:55:28.787Z,71.26
2023-01-13T04:57:33.196Z,70.82
2023-01-13T04:59:35.978Z,71.17
2023-01-13T05:01:38.926Z,70.80
2023-01-13T05:03:41.802Z,70.66
2023-01-13T05:05:44.641Z,71.22
2023-01-13T05:07:47.552Z,70.68
2023-01-13T05:09:50.459Z,71.04
2023-01-13T05:12:12.010Z,70.65
2023-01-13T05:14:32.138Z,70.66
2023-01-13T05:16:52.434Z,71.10
2023-01-13T05:18:55.483Z,71.64
2023-01-13T05:20:58.762Z,71.15
2023-01-13T05:23:19.029Z,71.13
2023-01-13T05:25:25.256Z,70.81
2023-01-13T05:27:30.265Z,70.55
2023-01-13T05:29:32.913Z,70.93
2023-01-13T05:31:36.050Z,70.57
2023-01-13T05:33:38.873Z,70.38
2023-01-13T05:35:43.766Z,70.55
2023-01-13T05:37:47.042Z,70.57
2023-01-13T05:40:07.887Z,70.35
2023-01-13T05:42:28.131Z,69.92
2023-01-13T05:44:32.225Z,70.22
2023-01-13T05:46:35.113Z,69.88
2023-01-13T05:48:39.572Z,69.68
2023-01-13T05:50:42.389Z,69.87
2023-01-13T05:52:45.503Z,69.41
2023-01-13T05:54:48.284Z,69.71
2023-01-13T05:56:56.712Z,70.19
2023-01-13T05:58:59.789Z,69.93
2023-01-13T06:01:05.999Z,69.87
2023-01-13T06:03:09.086Z,69.93
2023-01-13T06:05:11.946Z,69.59
2023-01-13T06:07:14.705Z,69.65
2023-01-13T06:09:17.603Z,69.81
2023-01-13T06:11:20.577Z,70.16
2023-01-13T06:13:36.771Z,71.23
2023-01-13T06:15:39.657Z,71.37
2023-01-13T06:17:43.735Z,72.10
2023-01-13T06:19:46.420Z,72.04
2023-01-13T06:21:49.214Z,71.20
2023-01-13T06:23:51.998Z,71.78
2023-01-13T06:26:02.192Z,71.65
2023-01-13T06:28:05.284Z,71.71
2023-01-13T06:30:09.565Z,71.45
2023-01-13T06:32:17.417Z,71.86
2023-01-13T06:34:21.776Z,72.23
2023-01-13T06:36:27.835Z,71.17
2023-01-13T06:38:35.906Z,72.00
2023-01-13T06:40:39.043Z,72.13
2023-01-13T06:43:00.042Z,73.67
2023-01-13T06:45:02.884Z,74.98
2023-01-13T06:47:06.144Z,75.79
2023-01-13T06:49:09.193Z,76.82
2023-01-13T06:51:14.395Z,77.49
2023-01-13T06:53:49.141Z,77.01
2023-01-13T06:55:52.069Z,78.03
2023-01-13T06:57:56.887Z,78.10
2023-01-13T06:59:59.646Z,77.88
2023-01-13T07:02:02.956Z,75.88
2023-01-13T07:04:06.143Z,75.90
2023-01-13T07:06:09.214Z,75.13
2023-01-13T07:08:13.382Z,75.03
2023-01-13T07:10:22.051Z,74.52
2023-01-13T07:12:24.902Z,75.18
2023-01-13T07:14:45.031Z,75.29
2023-01-13T07:16:47.905Z,75.43
2023-01-13T07:18:50.862Z,74.62
2023-01-13T07:20:54.831Z,74.49
2023-01-13T07:22:58.882Z,74.42
2023-01-13T07:25:03.070Z,73.90
2023-01-13T07:27:05.976Z,73.28
2023-01-13T07:29:08.803Z,72.96
2023-01-13T07:31:16.720Z,72.46
2023-01-13T07:33:19.893Z,72.74
2023-01-13T07:35:23.457Z,71.48
2023-01-13T07:37:26.264Z,71.29
2023-01-13T07:39:29.353Z,70.59
2023-01-13T07:41:51.040Z,70.00
2023-01-13T07:43:53.856Z,69.80
2023-01-13T07:45:58.448Z,70.27
2023-01-13T07:48:01.337Z,69.91
2023-01-13T07:50:04.505Z,70.13
2023-01-13T07:52:07.264Z,70.25
2023-01-13T07:54:10.104Z,69.74
2023-01-13T07:56:12.932Z,70.12
2023-01-13T07:58:17.197Z,70.44
2023-01-13T08:00:21.065Z,70.13
2023-01-13T08:02:24.246Z,69.59
2023-01-13T08:04:27.072Z,69.02
2023-01-13T08:06:29.936Z,69.12
2023-01-13T08:08:32.735Z,69.42
2023-01-13T08:10:35.506Z,69.35
2023-01-13T08:12:55.119Z,69.14
2023-01-13T08:15:01.473Z,68.31
2023-01-13T08:17:04.346Z,67.58
2023-01-13T08:19:07.117Z,68.01
2023-01-13T08:21:11.740Z,67.28
2023-01-13T08:23:15.771Z,66.94
2023-01-13T08:25:18.830Z,66.81
2023-01-13T08:27:21.631Z,66.58
2023-01-13T08:29:24.484Z,66.87
2023-01-13T08:31:28.701Z,66.58
2023-01-13T08:33:31.973Z,66.52
2023-01-13T08:35:35.155Z,66.77
2023-01-13T08:37:37.965Z,66.45
2023-01-13T08:39:40.710Z,66.48
2023-01-13T08:41:56.732Z,65.85
2023-01-13T08:43:59.663Z,67.02
2023-01-13T08:46:05.113Z,66.87
2023-01-13T08:48:09.824Z,66.25
2023-01-13T08:50:13.295Z,66.72
2023-01-13T08:52:16.731Z,66.47
2023-01-13T08:54:19.887Z,67.16
2023-01-13T08:56:22.748Z,66.94
2023-01-13T08:58:28.093Z,66.80
2023-01-13T09:00:31.644Z,66.84
2023-01-13T09:02:35.062Z,66.92
2023-01-13T09:04:39.958Z,67.09
2023-01-13T09:06:42.811Z,67.48
2023-01-13T09:08:45.982Z,67.71
2023-01-13T09:10:48.822Z,67.64
2023-01-13T09:13:09.518Z,67.68
2023-01-13T09:15:12.595Z,67.64
2023-01-13T09:17:15.818Z,68.04
2023-01-13T09:19:18.647Z,67.53
2023-01-13T09:21:23.032Z,67.89
2023-01-13T09:23:25.850Z,67.52
2023-01-13T09:25:28.756Z,67.08
2023-01-13T09:27:31.816Z,67.22
2023-01-13T09:29:34.611Z,67.30
2023-01-13T09:31:37.644Z,66.99
2023-01-13T09:34:00.411Z,67.02
2023-01-13T09:36:03.236Z,66.43
2023-01-13T09:38:07.815Z,66.40
2023-01-13T09:40:17.922Z,67.20
2023-01-13T09:42:46.743Z,67.01
2023-01-13T09:44:57.143Z,66.36
2023-01-13T09:47:05.518Z,65.84
2023-01-13T09:49:13.852Z,65.78
2023-01-13T09:51:24.638Z,65.85
2023-01-13T09:53:31.015Z,65.78
2023-01-13T09:55:37.062Z,65.72
2023-01-13T09:57:40.185Z,65.54
2023-01-13T09:59:43.779Z,65.17
2023-01-13T10:01:57.326Z,65.37
2023-01-13T10:04:04.718Z,65.04
2023-01-13T10:06:14.585Z,64.49
2023-01-13T10:08:22.955Z,64.74
2023-01-13T10:10:34.655Z,64.42
2023-01-13T10:12:55.115Z,64.94
2023-01-13T10:14:58.214Z,64.88
2023-01-13T10:17:08.603Z,62.95
2023-01-13T10:19:19.511Z,63.17
2023-01-13T10:21:41.551Z,62.49
2023-01-13T10:24:03.197Z,61.96
2023-01-13T10:26:27.969Z,62.16
2023-01-13T10:28:30.781Z,61.44
2023-01-13T10:30:38.720Z,61.40
2023-01-13T10:32:44.718Z,61.71
2023-01-13T10:34:49.553Z,61.57
2023-01-13T10:36:57.760Z,61.82
2023-01-13T10:39:09.411Z,61.55
2023-01-13T10:41:24.849Z,61.51
2023-01-13T10:43:29.369Z,61.82
2023-01-13T10:45:32.141Z,61.71
2023-01-13T10:47:37.792Z,61.53
2023-01-13T10:49:41.056Z,62.00
2023-01-13T10:51:45.519Z,61.41
2023-01-13T10:53:54.091Z,61.80
2023-01-13T10:56:02.359Z,61.56
2023-01-13T10:58:15.318Z,60.86
2023-01-13T11:00:28.663Z,59.96
2023-01-13T11:02:33.640Z,60.14
2023-01-13T11:04:38.825Z,59.54
2023-01-13T11:06:47.020Z,59.14
2023-01-13T11:08:52.470Z,59.08
2023-01-13T11:10:57.974Z,58.68
2023-01-13T11:13:08.402Z,58.05
2023-01-13T11:15:19.371Z,57.95
2023-01-13T11:17:40.535Z,58.11
2023-01-13T11:19:58.090Z,57.70
2023-01-13T11:22:07.115Z,57.98
2023-01-13T11:24:17.448Z,57.70
2023-01-13T11:26:28.255Z,57.76
2023-01-13T11:28:42.288Z,55.29
2023-01-13T11:30:56.218Z,56.78
2023-01-13T11:33:16.626Z,56.33
2023-01-13T11:35:22.634Z,56.19
2023-01-13T11:37:28.892Z,55.26
2023-01-13T11:39:45.523Z,54.52
2023-01-13T11:42:13.683Z,54.95
2023-01-13T11:44:22.275Z,55.36
2023-01-13T11:46:29.034Z,53.16
2023-01-13T11:48:35.547Z,54.03
2023-01-13T11:50:43.238Z,54.16
2023-01-13T11:53:08.461Z,54.08
2023-01-13T11:55:23.480Z,54.69
2023-01-13T11:57:43.246Z,54.88
2023-01-13T12:00:10.753Z,54.64
2023-01-13T12:02:27.947Z,55.34
2023-01-13T12:04:40.588Z,54.46
2023-01-13T12:06:46.025Z,54.97
2023-01-13T12:09:22.162Z,54.91
2023-01-13T12:11:32.106Z,54.17
2023-01-13T12:13:57.863Z,54.79
2023-01-13T12:16:10.019Z,55.28
2023-01-13T12:18:41.535Z,55.09
2023-01-13T12:20:53.781Z,55.42
2023-01-13T12:23:01.127Z,55.66
2023-01-13T12:25:08.244Z,55.91
2023-01-13T12:27:16.777Z,56.44
2023-01-13T12:29:21.521Z,56.80
2023-01-13T12:31:25.212Z,58.23
2023-01-13T12:33:52.427Z,57.77
2023-01-13T12:36:03.261Z,57.31
2023-01-13T12:38:12.609Z,57.90
2023-01-13T12:40:35.907Z,57.82
2023-01-13T12:43:04.951Z,57.95
2023-01-13T12:45:34.925Z,58.24
2023-01-13T12:47:39.053Z,59.25
2023-01-13T12:49:45.825Z,59.12
2023-01-13T12:52:14.872Z,59.11
2023-01-13T12:54:54.736Z,59.00
2023-01-13T12:56:58.180Z,58.47
2023-01-13T12:59:51.084Z,58.86
2023-01-13T13:02:30.818Z,58.16
2023-01-13T13:04:47.893Z,58.26
2023-01-13T13:06:55.311Z,58.31
2023-01-13T13:09:04.160Z,58.37
2023-01-13T13:11:40.610Z,57.94
2023-01-13T13:13:45.779Z,58.24
2023-01-13T13:15:49.740Z,57.79
2023-01-13T13:18:04.255Z,57.42
2023-01-13T13:20:54.317Z,57.10
2023-01-13T13:22:57.141Z,57.76
2023-01-13T13:25:22.608Z,57.38
2023-01-13T13:27:29.709Z,57.85
2023-01-13T13:29:50.631Z,58.33
2023-01-13T13:32:20.087Z,58.18
2023-01-13T13:34:33.088Z,57.73
2023-01-13T13:37:06.372Z,57.60
2023-01-13T13:39:39.676Z,57.32
2023-01-13T13:42:03.551Z,57.00
2023-01-13T13:44:33.687Z,55.25
2023-01-13T13:46:49.327Z,55.31
2023-01-13T13:48:53.890Z,54.88
2023-01-13T13:51:02.052Z,55.41
2023-01-13T13:53:09.152Z,56.38
2023-01-13T13:55:18.727Z,55.68
2023-01-13T13:57:28.052Z,56.39
2023-01-13T13:59:33.553Z,56.84
2023-01-13T14:01:39.559Z,56.70
2023-01-13T14:03:42.386Z,56.86
2023-01-13T14:05:55.025Z,59.17
2023-01-13T14:08:02.384Z,60.93
2023-01-13T14:10:15.169Z,62.15
2023-01-13T14:12:20.665Z,63.83
2023-01-13T14:14:24.881Z,64.89
2023-01-13T14:16:27.718Z,65.55
2023-01-13T14:18:32.978Z,65.05
2023-01-13T14:20:36.851Z,65.45
2023-01-13T14:22:39.696Z,66.17
2023-01-13T14:24:47.262Z,66.41
2023-01-13T14:26:53.046Z,66.27
2023-01-13T14:28:57.334Z,64.96
2023-01-13T14:31:01.268Z,64.75
2023-01-13T14:33:04.317Z,64.61
2023-01-13T14:35:08.264Z,64.04
2023-01-13T14:37:24.824Z,64.10
2023-01-13T14:39:37.243Z,63.71
2023-01-13T14:41:48.969Z,63.51
2023-01-13T14:43:55.766Z,63.56
2023-01-13T14:46:00.804Z,63.96
2023-01-13T14:48:09.852Z,63.69
2023-01-13T14:50:28.094Z,63.97
2023-01-13T14:52:33.370Z,64.33
2023-01-13T14:54:47.834Z,64.80
2023-01-13T14:56:53.702Z,64.92
2023-01-13T14:58:57.889Z,64.94
2023-01-13T15:01:29.708Z,63.75
2023-01-13T15:03:42.088Z,63.54
2023-01-13T15:05:50.179Z,63.81
2023-01-13T15:07:55.256Z,63.52
2023-01-13T15:09:59.135Z,63.45
2023-01-13T15:12:16.977Z,62.89
2023-01-13T15:14:27.109Z,63.12
2023-01-13T15:16:33.774Z,62.75
2023-01-13T15:18:40.078Z,62.80
2023-01-13T15:20:43.475Z,62.02
2023-01-13T15:22:46.439Z,61.84
2023-01-13T15:24:50.059Z,61.88
2023-01-13T15:26:52.826Z,61.17
2023-01-13T15:28:57.647Z,59.95
2023-01-13T15:31:03.511Z,59.72
2023-01-13T15:33:06.279Z,60.91
2023-01-13T15:35:10.945Z,60.69
2023-01-13T15:37:14.258Z,60.68
2023-01-13T15:39:17.046Z,60.43
2023-01-13T15:41:40.735Z,60.25
2023-01-13T15:44:01.011Z,60.76
2023-01-13T15:46:33.667Z,60.21
2023-01-13T15:48:36.660Z,60.07
2023-01-13T15:50:40.041Z,60.36
2023-01-13T15:52:42.925Z,59.51
2023-01-13T15:54:45.792Z,59.11
2023-01-13T15:56:48.723Z,59.43
2023-01-13T15:58:51.804Z,58.96
2023-01-13T16:00:54.821Z,59.13
2023-01-13T16:02:59.758Z,58.93
2023-01-13T16:05:02.595Z,59.41
2023-01-13T16:07:14.711Z,58.73
2023-01-13T16:09:17.781Z,58.50
2023-01-13T16:11:20.607Z,58.96
2023-01-13T16:13:23.445Z,58.12
2023-01-13T16:15:26.268Z,58.20
2023-01-13T16:17:30.133Z,58.54
2023-01-13T16:19:34.373Z,58.35
2023-01-13T16:21:37.173Z,57.26
2023-01-13T16:23:40.098Z,57.52
2023-01-13T16:25:44.990Z,56.82
2023-01-13T16:27:47.756Z,57.00
2023-01-13T16:29:51.525Z,58.19
2023-01-13T16:31:54.438Z,57.70
2023-01-13T16:33:57.585Z,57.20
2023-01-13T16:36:10.253Z,57.55
2023-01-13T16:38:16.697Z,57.68
2023-01-13T16:40:24.549Z,57.58
2023-01-13T16:42:27.354Z,57.06
2023-01-13T16:44:31.594Z,57.40
2023-01-13T16:46:35.123Z,57.98
2023-01-13T16:48:37.993Z,57.46
2023-01-13T16:50:42.348Z,57.94
2023-01-13T16:52:46.501Z,57.98
2023-01-13T16:54:49.307Z,58.45
2023-01-13T16:56:52.100Z,57.25
2023-01-13T16:58:56.929Z,57.90
2023-01-13T17:00:59.606Z,57.76
2023-01-13T17:03:03.239Z,57.47
2023-01-13T17:05:06.668Z,57.77
2023-01-13T17:07:10.850Z,58.30
2023-01-13T17:09:17.399Z,58.56
2023-01-13T17:11:21.632Z,58.16
2023-01-13T17:13:24.549Z,58.29
2023-01-13T17:15:27.445Z,58.52
2023-01-13T17:17:30.289Z,58.92
2023-01-13T17:19:33.235Z,58.54
2023-01-13T17:21:36.525Z,58.48
2023-01-13T17:23:39.409Z,58.44
2023-01-13T17:25:43.666Z,58.92
2023-01-13T17:27:46.534Z,58.44
2023-01-13T17:29:49.387Z,58.17
2023-01-13T17:31:53.262Z,58.02
2023-01-13T17:33:56.245Z,58.56
2023-01-13T17:35:58.962Z,58.41
2023-01-13T17:38:02.948Z,58.79
2023-01-13T17:40:06.991Z,58.55
2023-01-13T17:42:11.248Z,58.45
2023-01-13T17:44:14.243Z,58.93
2023-01-13T17:46:18.577Z,58.48
2023-01-13T17:48:21.694Z,58.66
2023-01-13T17:50:24.737Z,58.67
2023-01-13T17:52:27.633Z,58.83
2023-01-13T17:54:30.444Z,58.94
2023-01-13T17:56:33.199Z,58.80
2023-01-13T17:58:37.474Z,59.12
2023-01-13T18:00:40.543Z,59.36
2023-01-13T18:02:43.405Z,59.66
2023-01-13T18:04:46.204Z,59.27
2023-01-13T18:06:49.503Z,59.82
2023-01-13T20:58:26.535Z,71.16
2023-01-13T21:00:29.646Z,71.83
2023-01-13T21:02:32.528Z,71.20
2023-01-13T21:04:35.475Z,70.74
2023-01-13T21:06:41.563Z,70.07
2023-01-13T21:08:46.363Z,69.93
2023-01-13T21:10:49.114Z,68.38
2023-01-13T21:13:09.429Z,67.01
2023-01-13T21:15:19.895Z,66.68
2023-01-13T21:17:40.720Z,66.49
2023-01-13T21:19:43.541Z,66.19
2023-01-13T21:21:46.347Z,66.00
2023-01-13T21:23:52.835Z,65.36
2023-01-13T21:25:55.721Z,65.45
2023-01-13T21:28:03.187Z,65.62
2023-01-13T21:30:07.199Z,64.98
2023-01-13T21:32:11.397Z,64.39
2023-01-13T21:34:16.946Z,64.06
2023-01-13T21:36:19.825Z,64.24
2023-01-13T21:38:22.641Z,63.75
2023-01-13T21:40:25.506Z,63.53
2023-01-13T21:42:46.133Z,63.96
2023-01-13T21:45:06.832Z,63.38
2023-01-13T21:47:33.944Z,63.19
2023-01-13T21:49:43.882Z,63.53
2023-01-13T21:51:46.771Z,63.06
2023-01-13T21:53:49.553Z,62.77
2023-01-13T21:55:53.017Z,62.94
2023-01-13T21:57:57.831Z,62.78
2023-01-13T22:00:00.473Z,63.32
2023-01-13T22:02:25.199Z,63.56
2023-01-13T22:04:29.587Z,63.11
2023-01-13T22:06:32.473Z,63.25
2023-01-13T22:08:35.679Z,63.72
2023-01-13T22:10:56.835Z,63.94
2023-01-13T22:13:22.191Z,63.39
2023-01-13T22:15:27.011Z,63.76
2023-01-13T22:17:31.513Z,64.18
2023-01-13T22:19:39.052Z,64.52
2023-01-13T22:21:41.869Z,65.12
2023-01-13T22:23:45.009Z,64.87
2023-01-13T22:25:47.862Z,64.42
2023-01-13T22:27:52.353Z,64.28
2023-01-13T22:29:55.546Z,63.88
2023-01-13T22:31:58.354Z,63.88
2023-01-13T22:34:01.106Z,63.93
2023-01-13T22:36:06.010Z,64.05
2023-01-13T22:38:11.975Z,63.61
2023-01-13T22:40:15.049Z,63.51
2023-01-13T22:42:17.827Z,63.67
2023-01-13T22:44:21.197Z,63.68
2023-01-13T22:46:23.982Z,63.57
2023-01-13T22:48:27.266Z,63.45
2023-01-13T22:50:30.216Z,63.59
2023-01-13T22:52:35.424Z,63.22
2023-01-13T22:54:38.229Z,63.65
2023-01-13T22:56:41.508Z,63.45
2023-01-13T22:58:44.684Z,63.50
2023-01-13T23:00:47.733Z,63.62
2023-01-13T23:02:50.489Z,63.78
2023-01-13T23:04:53.473Z,63.31
2023-01-13T23:06:56.257Z,63.55
2023-01-13T23:09:01.495Z,63.38
2023-01-13T23:11:06.206Z,63.72
2023-01-13T23:13:09.808Z,64.08
2023-01-13T23:15:12.804Z,64.05
2023-01-13T23:17:15.602Z,64.21
2023-01-13T23:19:18.405Z,63.97
2023-01-13T23:21:23.199Z,64.14
2023-01-13T23:23:25.987Z,64.04
2023-01-13T23:25:30.158Z,63.87
2023-01-13T23:27:34.228Z,64.17
2023-01-13T23:29:37.087Z,64.02
2023-01-13T23:31:40.281Z,64.16
2023-01-13T23:33:43.970Z,63.76
2023-01-13T23:35:56.345Z,63.79
2023-01-13T23:37:59.149Z,64.04
2023-01-13T23:40:02.326Z,63.75
2023-01-13T23:42:06.747Z,64.01
2023-01-13T23:44:10.611Z,64.18
2023-01-13T23:46:16.278Z,63.64
2023-01-13T23:48:19.148Z,63.64
2023-01-13T23:50:21.935Z,63.54
2023-01-13T23:52:24.747Z,63.45
2023-01-13T23:54:27.612Z,63.02
2023-01-13T23:56:32.279Z,63.08
2023-01-13T23:58:36.480Z,62.90
